PGD weather

Charlotte County Airport
Punta Gorda, Florida, United States

Public forecast

Using degrees Fahrenheit for public forecast. Weather courtesy of forecast.io.

Current aviation weather report (METAR) for Charlotte County Airport

Retrieved 2019/12/08 22:53 UTC (1 hour ago):

KPGD 082253Z 09004KT 10SM FEW050 22/16 A3011 RMK AO2 SLP195 T02170161

Aviation forecast (TAF) for Charlotte County Airport

Retrieved 2019/12/08 18:24 UTC (6 hours ago):

TAF KPGD 081721Z 0818/0918 12007KT P6SM SCT040 SCT250 FM090100 10004KT P6SM SCT040 FM091500 15008KT P6SM SCT025 SCT250